Weather observations for the past three days for
Bellingham, Bellingham International Airport
| Date | Time (pdt) | Wind (mph) | Vis. (mi.) | Weather | Sky Cond. | Temperature (ºF) | Relative Humidity | Wind Chill (°F) | Heat Index (°F) | Pressure | Precipitation (in) | ||||||
|---|---|---|---|---|---|---|---|---|---|---|---|---|---|---|---|---|---|
| Air | Dwpt | 6 hour | altimeter (in) | sea level (mb) | 1 hr | 3 hr | 6 hr | ||||||||||
| Max. | Min. | ||||||||||||||||
| 08 | 04:53 | SW 3 | 10.00 | Fair | CLR | 51.1 | 48 | 55 | 48.9 | 89% | 30.01 | 1016.9 | |||||
| 08 | 03:53 | S 3 | 10.00 | Fair | CLR | 52 | 48.9 | 89% | 30.01 | 1016.8 | |||||||
| 08 | 02:53 | Calm | 10.00 | Fair | CLR | 48.9 | 46.9 | 93% | 30 | 1016.7 | |||||||
| 08 | 01:53 | Calm | 10.00 | Fair | CLR | 50 | 46.9 | 89% | 30 | 1016.6 | |||||||
| 08 | 00:53 | S 5 | 10.00 | Fair | CLR | 54 | 46.9 | 77% | 30.01 | 1016.9 | |||||||
| 07 | 23:53 | S 3 | 10.00 | Overcast | OVC048 | 54 | 48 | 80% | 30.02 | 1017.1 | |||||||
| 07 | 22:53 | S 5 | 10.00 | Overcast | OVC050 | 54 | 48 | 62.1 | 54 | 80% | 30.02 | 1017.1 | |||||
| 07 | 21:53 | S 5 | 10.00 | Overcast | OVC050 | 55 | 48 | 77% | 30.02 | 1017.1 | |||||||
| 07 | 20:53 | S 6 | 10.00 | Fair | CLR | 57 | 46.9 | 69% | 30.02 | 1017.3 | |||||||
| 07 | 19:53 | S 6 | 10.00 | Fair | CLR | 57.9 | 48 | 70% | 30.02 | 1017.3 | |||||||
| 07 | 18:53 | S 5 | 10.00 | Fair | CLR | 60.1 | 48.9 | 67% | 30.03 | 1017.6 | |||||||
| 07 | 17:53 | Vrbl 6 | 10.00 | Fair | CLR | 61 | 48.9 | 65% | 30.05 | 1018.2 | |||||||
| 07 | 16:53 | S 7 | 10.00 | Fair | CLR | 61 | 48.9 | 63 | 55 | 65% | 30.05 | 1018.2 | |||||
| 07 | 15:53 | Vrbl 7 | 10.00 | Fair | CLR | 61 | 48.9 | 65% | 30.06 | 1018.5 | |||||||
| 07 | 14:53 | Vrbl 6 | 10.00 | Partly Cloudy | SCT023 | 63 | 51.1 | 65% | 30.08 | 1019.1 | |||||||
| 07 | 13:53 | Vrbl 7 | 10.00 | Partly Cloudy | SCT023 | 59 | 51.1 | 75% | 30.1 | 1019.9 | |||||||
| 07 | 12:53 | Vrbl 3 | 10.00 | Mostly Cloudy | BKN023 | 57.9 | 50 | 75% | 30.11 | 1020.5 | |||||||
| 07 | 11:53 | S 8 | 10.00 | Overcast | FEW014 OVC034 | 55.9 | 48 | 75% | 30.13 | 1020.8 | |||||||
| 07 | 10:53 | NW 3 | 10.00 | Overcast | OVC025 | 55.9 | 46.9 | 57 | 52 | 72% | 30.13 | 1021.1 | |||||
| 07 | 09:53 | Vrbl 3 | 10.00 | Overcast | OVC035 | 55.9 | 46.9 | 72% | 30.13 | 1021.0 | |||||||
| 07 | 08:53 | S 6 | 10.00 | Partly Cloudy | FEW049 SCT060 | 55 | 46 | 72% | 30.13 | 1021.1 | |||||||
| 07 | 07:53 | S 6 | 10.00 | Overcast | FEW039 OVC060 | 53.1 | 46.9 | 80% | 30.14 | 1021.3 | |||||||
| 07 | 06:53 | S 3 | 10.00 | Overcast | BKN040 OVC047 | 53.1 | 46 | 77% | 30.14 | 1021.2 | |||||||
| 07 | 05:53 | SE 5 | 10.00 | Overcast | OVC040 | 53.1 | 46 | 77% | 30.13 | 1020.9 | |||||||
| 07 | 04:53 | S 5 | 10.00 | Overcast | OVC040 | 53.1 | 46 | 55 | 53.1 | 77% | 30.13 | 1021.1 | |||||
| 07 | 03:53 | S 8 | 10.00 | Overcast | OVC039 | 53.1 | 46 | 77% | 30.13 | 1021.1 | |||||||
| 07 | 02:53 | S 8 | 10.00 | Overcast | OVC036 | 53.1 | 46 | 77% | 30.14 | 1021.2 | |||||||
| 07 | 01:53 | S 10 | 10.00 | Overcast | OVC034 | 53.1 | 46 | 77% | 30.13 | 1021.1 | |||||||
| 07 | 00:53 | S 8 | 10.00 | Light Rain | OVC034 | 54 | 46.9 | 77% | 30.13 | 1020.9 | |||||||
| 06 | 23:53 | S 10 G 22 | 10.00 | Overcast | BKN036 OVC044 | 54 | 46.9 | 77% | 30.12 | 1020.6 | |||||||
| 06 | 22:53 | S 14 G 23 | 10.00 | Overcast | OVC035 | 55 | 48 | 57 | 55 | 77% | 30.11 | 1020.4 | |||||
| 06 | 21:53 | S 12 G 20 | 10.00 | Overcast | OVC034 | 55 | 48 | 77% | 30.12 | 1020.6 | |||||||
| 06 | 20:53 | S 9 G 21 | 10.00 | Overcast | OVC033 | 55 | 48 | 77% | 30.11 | 1020.4 | |||||||
| 06 | 19:53 | S 10 G 18 | 10.00 | Overcast | OVC033 | 55 | 48 | 77% | 30.11 | 1020.2 | |||||||
| 06 | 18:53 | S 10 G 21 | 10.00 | Overcast | OVC036 | 55 | 48 | 77% | 30.11 | 1020.3 | |||||||
| 06 | 17:53 | S 8 G 20 | 10.00 | Overcast | OVC034 | 55.9 | 48 | 75% | 30.11 | 1020.4 | |||||||
| 06 | 16:53 | S 9 | 10.00 | Overcast | OVC033 | 55.9 | 48 | 57.9 | 52 | 75% | 30.11 | 1020.3 | |||||
| 06 | 15:53 | S 12 | 10.00 | Mostly Cloudy | SCT037 BKN046 | 57 | 48 | 72% | 30.12 | 1020.5 | |||||||
| 06 | 14:53 | S 10 | 10.00 | Overcast | BKN017 OVC025 | 55.9 | 48 | 75% | 30.12 | 1020.6 | |||||||
| 06 | 13:53 | S 9 | 10.00 | Overcast | BKN012 BKN024 OVC035 | 55 | 48 | 77% | 30.13 | 1020.8 | |||||||
| 06 | 12:53 | S 8 | 10.00 | Overcast | OVC012 | 54 | 48.9 | 83% | 30.13 | 1020.8 | |||||||
| 06 | 11:53 | S 7 | 10.00 | Overcast | OVC010 | 54 | 48.9 | 83% | 30.11 | 1020.3 | |||||||
| 06 | 10:53 | SW 7 | 10.00 | Overcast | OVC007 | 53.1 | 48.9 | 53.1 | 52 | 86% | 30.11 | 1020.2 | |||||
| 06 | 09:53 | S 8 | 10.00 | Overcast | OVC008 | 52 | 48 | 86% | 30.1 | 1019.9 | |||||||
| 06 | 08:53 | Vrbl 6 | 10.00 | Overcast | OVC009 | 52 | 48 | 86% | 30.11 | 1020.1 | |||||||
| 06 | 07:53 | S 10 G 20 | 10.00 | Overcast | OVC009 | 52 | 48 | 86% | 30.08 | 1019.3 | |||||||
| 06 | 06:53 | S 9 G 18 | 10.00 | Overcast | OVC011 | 52 | 48 | 86% | 30.07 | 1019.0 | |||||||
| 06 | 05:53 | S 12 G 18 | 10.00 | Overcast | OVC012 | 52 | 48 | 86% | 30.05 | 1018.4 | |||||||
| 06 | 04:53 | S 8 G 22 | 10.00 | Overcast | OVC015 | 52 | 48 | 55.9 | 52 | 86% | 30.04 | 1017.9 | |||||
| 06 | 03:53 | S 12 G 23 | 10.00 | Mostly Cloudy | BKN015 | 52 | 48 | 86% | 30.03 | 1017.6 | |||||||
| 06 | 02:53 | S 12 G 22 | 10.00 | Fair | CLR | 53.1 | 48.9 | 86% | 30.01 | 1017.0 | |||||||
| 06 | 01:53 | S 13 G 22 | 10.00 | Fair | CLR | 53.1 | 48.9 | 86% | 30.01 | 1016.8 | |||||||
| 06 | 00:53 | S 10 G 21 | 10.00 | Fair | CLR | 54 | 48.9 | 83% | 30 | 1016.4 | |||||||
| 05 | 23:53 | S 14 G 24 | 10.00 | Fair | CLR | 55 | 50 | 83% | 29.98 | 1015.9 | |||||||
| 05 | 22:53 | S 12 G 22 | 10.00 | Fair | CLR | 55.9 | 50 | 62.1 | 55.9 | 81% | 29.98 | 1015.8 | |||||
| 05 | 21:53 | S 9 G 23 | 10.00 | Fair | CLR | 57 | 50 | 78% | 29.97 | 1015.4 | |||||||
| 05 | 20:53 | S 9 G 18 | 10.00 | Fair | CLR | 57.9 | 50 | 75% | 29.95 | 1014.9 | |||||||
| 05 | 19:53 | S 12 | 10.00 | Fair | CLR | 57.9 | 51.1 | 78% | 29.94 | 1014.5 | |||||||
| 05 | 18:53 | S 9 | 10.00 | Fair | CLR | 60.1 | 52 | 75% | 29.94 | 1014.7 | |||||||
| 05 | 17:53 | S 13 G 22 | 10.00 | Fair | CLR | 62.1 | 51.1 | 67% | 29.95 | 1014.6 | |||||||
| 05 | 16:53 | S 9 G 21 | 10.00 | Fair | CLR | 62.1 | 52 | 62.1 | 57 | 70% | 29.95 | 1014.9 | |||||
| 05 | 15:53 | S 9 G 21 | 10.00 | Fair | CLR | 61 | 52 | 72% | 29.97 | 1015.4 | |||||||
| 05 | 14:53 | S 12 G 23 | 10.00 | Fair | CLR | 61 | 52 | 72% | 29.98 | 1015.8 | |||||||
| 05 | 13:53 | S 13 G 22 | 10.00 | Fair | CLR | 60.1 | 51.1 | 72% | 29.99 | 1016.1 | |||||||
| 05 | 12:53 | S 9 G 21 | 10.00 | Fair | CLR | 60.1 | 51.1 | 72% | 29.99 | 1016.2 | |||||||
| 05 | 11:53 | S 9 | 10.00 | Overcast | OVC015 | 59 | 51.1 | 75% | 29.99 | 1016.1 | |||||||
| 05 | 10:53 | S 10 | 10.00 | Overcast | OVC015 | 57 | 51.1 | 57.9 | 53.1 | 81% | 29.99 | 1016.0 | |||||
| 05 | 09:53 | S 8 | 10.00 | Overcast | OVC008 | 55 | 51.1 | 87% | 29.99 | 1016.0 | |||||||
| 05 | 08:53 | Vrbl 7 | 10.00 | Overcast | OVC008 | 55 | 51.1 | 87% | 29.98 | 1015.9 | |||||||
| 05 | 07:53 | S 8 | 5.00 | Fog/Mist | BKN008 | 54 | 50 | 87% | 29.97 | 1015.3 | |||||||
| 05 | 06:53 | S 13 G 22 | 5.00 | Fog/Mist | BKN008 | 53.1 | 50 | 89% | 29.94 | 1014.5 | |||||||
| 05 | 05:53 | S 13 G 23 | 10.00 | Partly Cloudy | SCT008 | 53.1 | 50 | 89% | 29.92 | 1013.8 | |||||||
| Date | Time (pdt) | Wind (mph) | Vis. (mi.) | Weather | Sky Cond. | Air | Dwpt | Max. | Min. | Relative Humidity | Wind Chill (°F) | Heat Index (°F) | altimeter (in) | sea level (mb) | 1 hr | 3 hr | 6 hr |
| 6 hour | |||||||||||||||||
| Temperature (ºF) | Pressure | Precipitation (in) | |||||||||||||||